Аэропорт: Шереметьево. Москва

ICAO: UUEE

METAR:
2019-07-23 18:00:00
UUEE 231800Z 07004MPS 9999 OVC014 17/16 Q1011 R06C/CLRD62 R06R/CLRD62 NOSIG
METAR:
2019-07-23 17:04:00
TAF UUEE 231704Z 2318/2418 08003MPS 6000 BKN011 TX23/2412Z TN15/2401Z TEMPO 2323/2406 3100 BR BKN004 TEMPO 2409/2418 3100 -SHRA BKN015CB